createdAt,value
2018-06-25T00:04:32.680Z,14.20
2018-06-25T00:07:01.964Z,14.20
2018-06-25T00:09:31.248Z,14.20
2018-06-25T00:12:00.524Z,14.20
2018-06-25T00:14:29.785Z,14.30
2018-06-25T00:16:59.070Z,14.20
2018-06-25T00:19:28.308Z,14.20
2018-06-25T00:21:57.670Z,14.20
2018-06-25T00:24:27.038Z,14.10
2018-06-25T00:26:56.500Z,14.10
2018-06-25T00:29:25.770Z,14.20
2018-06-25T00:31:55.079Z,14.20
2018-06-25T00:34:24.351Z,14.10
2018-06-25T00:36:53.692Z,14.10
2018-06-25T00:39:23.017Z,14.10
2018-06-25T00:41:52.296Z,14.10
2018-06-25T00:44:21.573Z,14.20
2018-06-25T00:46:50.848Z,14.20
2018-06-25T00:49:20.132Z,14.10
2018-06-25T00:51:49.433Z,14.20
2018-06-25T00:54:18.707Z,14.20
2018-06-25T00:59:27.850Z,14.10
2018-06-25T01:01:57.450Z,14.10
2018-06-25T01:04:26.782Z,14.20
2018-06-25T01:06:56.075Z,14.10
2018-06-25T01:09:25.319Z,14.10
2018-06-25T01:11:54.562Z,14.20
2018-06-25T01:14:23.901Z,14.20
2018-06-25T01:16:53.384Z,14.10
2018-06-25T01:19:22.725Z,14.10
2018-06-25T01:21:51.982Z,14.20
2018-06-25T01:24:21.484Z,14.10
2018-06-25T01:26:50.801Z,14.10
2018-06-25T01:31:48.908Z,13.90
2018-06-25T01:34:18.246Z,13.70
2018-06-25T01:36:47.663Z,13.60
2018-06-25T01:39:16.960Z,13.60
2018-06-25T01:41:46.402Z,13.50
2018-06-25T01:44:15.663Z,13.60
2018-06-25T01:46:45.853Z,13.50
2018-06-25T01:49:15.116Z,13.50
2018-06-25T01:54:13.197Z,13.50
2018-06-25T01:56:42.833Z,13.40
2018-06-25T01:59:12.180Z,13.40
2018-06-25T02:01:41.505Z,13.40
2018-06-25T02:06:39.614Z,13.40
2018-06-25T02:09:10.661Z,13.30
2018-06-25T02:11:40.379Z,13.40
2018-06-25T02:14:09.690Z,13.40
2018-06-25T02:16:39.114Z,13.50
2018-06-25T02:19:08.638Z,13.60
2018-06-25T02:21:37.896Z,13.50
2018-06-25T02:24:07.196Z,13.60
2018-06-25T02:26:36.459Z,13.60
2018-06-25T02:29:05.807Z,13.70
2018-06-25T02:31:35.137Z,13.70
2018-06-25T02:34:04.601Z,13.60
2018-06-25T02:36:33.841Z,13.50
2018-06-25T02:39:03.257Z,13.60
2018-06-25T02:41:32.548Z,13.50
2018-06-25T02:44:01.839Z,13.50
2018-06-25T02:46:31.155Z,13.60
2018-06-25T02:49:00.427Z,13.70
2018-06-25T02:51:29.795Z,13.70
2018-06-25T02:53:59.055Z,13.60
2018-06-25T02:56:28.311Z,13.60
2018-06-25T02:58:58.399Z,13.70
2018-06-25T03:01:27.668Z,13.60
2018-06-25T03:03:56.922Z,13.70
2018-06-25T03:06:26.198Z,13.80
2018-06-25T03:08:55.605Z,13.80
2018-06-25T03:11:24.862Z,13.80
2018-06-25T03:13:54.286Z,13.80
2018-06-25T03:16:23.603Z,13.80
2018-06-25T03:18:52.970Z,13.80
2018-06-25T03:21:22.569Z,13.80
2018-06-25T03:23:51.974Z,13.70
2018-06-25T03:26:21.642Z,13.70
2018-06-25T03:28:50.962Z,13.60
2018-06-25T03:31:20.260Z,13.50
2018-06-25T03:33:49.561Z,13.50
2018-06-25T03:36:18.812Z,13.40
2018-06-25T03:38:48.241Z,13.40
2018-06-25T03:41:17.492Z,13.40
2018-06-25T03:43:46.749Z,13.40
2018-06-25T03:46:16.026Z,13.40
2018-06-25T03:48:45.536Z,13.40
2018-06-25T03:51:14.824Z,13.40
2018-06-25T03:53:44.079Z,13.40
2018-06-25T03:56:13.389Z,13.40
2018-06-25T03:58:42.690Z,13.40
2018-06-25T04:01:12.022Z,13.50
2018-06-25T04:06:10.084Z,13.40
2018-06-25T04:08:39.418Z,13.40
2018-06-25T04:13:37.635Z,13.50
2018-06-25T04:16:07.204Z,13.50
2018-06-25T04:18:36.749Z,13.60
2018-06-25T04:21:06.156Z,13.60
2018-06-25T04:23:35.480Z,13.50
2018-06-25T04:26:05.787Z,13.50
2018-06-25T04:28:35.181Z,13.50
2018-06-25T04:31:04.571Z,13.60
2018-06-25T04:33:33.873Z,13.50
2018-06-25T04:36:03.417Z,13.60
2018-06-25T04:38:32.790Z,13.70
2018-06-25T04:41:03.650Z,13.60
2018-06-25T04:43:32.967Z,13.70
2018-06-25T04:46:02.323Z,13.70
2018-06-25T04:48:31.694Z,13.70
2018-06-25T04:51:00.982Z,13.70
2018-06-25T04:53:30.254Z,13.80
2018-06-25T04:55:59.644Z,13.70
2018-06-25T04:58:28.904Z,13.70
2018-06-25T05:00:58.277Z,13.70
2018-06-25T05:03:27.863Z,13.70
2018-06-25T05:05:57.184Z,13.90
2018-06-25T05:08:26.437Z,13.90
2018-06-25T05:10:55.696Z,13.90
2018-06-25T05:13:24.943Z,13.90
2018-06-25T05:15:54.366Z,14.00
2018-06-25T05:18:23.633Z,14.10
2018-06-25T05:20:52.916Z,14.00
2018-06-25T05:23:22.186Z,14.00
2018-06-25T05:25:51.467Z,14.00
2018-06-25T05:28:20.720Z,14.10
2018-06-25T05:30:50.112Z,14.50
2018-06-25T05:33:19.440Z,14.60
2018-06-25T05:35:48.695Z,14.40
2018-06-25T05:38:18.072Z,14.60
2018-06-25T05:40:47.308Z,14.70
2018-06-25T05:43:16.581Z,14.90
2018-06-25T05:45:45.873Z,14.80
2018-06-25T05:48:15.201Z,14.80
2018-06-25T05:50:44.532Z,14.90
2018-06-25T05:53:13.815Z,15.20
2018-06-25T05:55:43.105Z,14.80
2018-06-25T05:58:12.475Z,15.20
2018-06-25T06:00:42.008Z,15.00
2018-06-25T06:03:11.487Z,14.90
2018-06-25T06:05:40.805Z,14.90
2018-06-25T06:08:10.242Z,14.90
2018-06-25T06:10:39.531Z,15.00
2018-06-25T06:13:08.983Z,15.10
2018-06-25T06:15:38.283Z,15.20
2018-06-25T06:18:07.559Z,15.40
2018-06-25T06:20:36.877Z,15.10
2018-06-25T06:23:06.743Z,15.50
2018-06-25T06:25:36.069Z,15.50
2018-06-25T06:28:05.547Z,15.30
2018-06-25T06:30:34.919Z,15.60
2018-06-25T06:33:04.265Z,15.70
2018-06-25T06:35:33.721Z,15.40
2018-06-25T06:38:03.092Z,15.70
2018-06-25T06:40:32.409Z,15.80
2018-06-25T06:43:01.743Z,15.90
2018-06-25T06:45:31.176Z,16.00
2018-06-25T06:48:01.057Z,16.30
2018-06-25T06:50:30.470Z,16.30
2018-06-25T06:52:59.744Z,16.30
2018-06-25T06:55:29.041Z,16.20
2018-06-25T06:57:58.528Z,16.20
2018-06-25T07:00:27.918Z,15.80
2018-06-25T07:02:57.226Z,16.10
2018-06-25T07:05:26.614Z,16.20
2018-06-25T07:07:55.955Z,15.60
2018-06-25T07:10:25.367Z,15.80
2018-06-25T07:12:54.659Z,15.80
2018-06-25T07:15:23.982Z,15.70
2018-06-25T07:17:53.281Z,16.30
2018-06-25T07:20:22.598Z,16.20
2018-06-25T07:22:51.972Z,16.30
2018-06-25T07:25:21.318Z,16.60
2018-06-25T07:27:50.639Z,16.70
2018-06-25T07:30:19.990Z,17.10
2018-06-25T07:32:49.349Z,16.80
2018-06-25T07:35:19.400Z,17.50
2018-06-25T07:37:48.742Z,17.40
2018-06-25T07:40:18.262Z,17.30
2018-06-25T07:42:47.681Z,17.10
2018-06-25T07:45:17.026Z,17.00
2018-06-25T07:47:46.311Z,17.10
2018-06-25T07:50:16.266Z,17.00
2018-06-25T07:52:45.809Z,16.90
2018-06-25T07:55:15.162Z,17.30
2018-06-25T07:57:44.503Z,17.90
2018-06-25T08:00:13.814Z,17.70
2018-06-25T08:02:43.117Z,17.10
2018-06-25T08:05:12.507Z,17.30
2018-06-25T08:07:41.813Z,17.90
2018-06-25T08:10:12.051Z,17.70
2018-06-25T08:12:41.671Z,18.10
2018-06-25T08:15:11.055Z,18.60
2018-06-25T08:17:40.550Z,18.30
2018-06-25T08:20:10.873Z,17.60
2018-06-25T08:22:40.161Z,18.80
2018-06-25T08:25:09.700Z,19.30
2018-06-25T08:27:39.105Z,18.90
2018-06-25T08:30:08.689Z,18.90
2018-06-25T08:32:38.294Z,18.20
2018-06-25T08:35:07.656Z,19.20
2018-06-25T08:37:37.052Z,19.80
2018-06-25T08:40:06.638Z,19.50
2018-06-25T08:42:36.940Z,18.90
2018-06-25T08:45:06.277Z,19.30
2018-06-25T08:47:35.686Z,19.30
2018-06-25T08:50:05.038Z,20.60
2018-06-25T08:52:34.410Z,21.40
2018-06-25T08:55:03.836Z,19.50
2018-06-25T08:57:33.357Z,18.70
2018-06-25T09:00:02.707Z,18.70
2018-06-25T09:02:32.003Z,19.20
2018-06-25T09:05:04.648Z,18.70
2018-06-25T09:07:33.937Z,18.40
2018-06-25T09:10:03.453Z,19.10
2018-06-25T09:12:34.605Z,19.20
2018-06-25T09:15:04.281Z,18.80
2018-06-25T09:17:33.592Z,19.10
2018-06-25T09:20:02.937Z,19.40
2018-06-25T09:22:32.294Z,19.80
2018-06-25T09:25:01.636Z,20.70
2018-06-25T09:27:36.044Z,21.50
2018-06-25T09:30:05.742Z,21.10
2018-06-25T09:32:35.015Z,20.70
2018-06-25T09:35:04.412Z,20.20
2018-06-25T09:37:33.956Z,19.80
2018-06-25T09:40:03.318Z,20.10
2018-06-25T09:42:32.618Z,19.90
2018-06-25T09:45:01.986Z,20.30
2018-06-25T09:47:31.352Z,21.30
2018-06-25T09:50:00.693Z,22.50
2018-06-25T09:52:30.044Z,21.60
2018-06-25T09:54:59.428Z,21.00
2018-06-25T09:57:28.849Z,20.90
2018-06-25T09:59:58.219Z,21.00
2018-06-25T10:02:27.712Z,21.20
2018-06-25T10:04:57.054Z,21.20
2018-06-25T10:07:26.491Z,21.40
2018-06-25T10:09:55.800Z,21.20
2018-06-25T10:12:25.958Z,21.50
2018-06-25T10:14:55.315Z,22.10
2018-06-25T10:17:24.956Z,21.80
2018-06-25T10:19:54.337Z,22.00
2018-06-25T10:22:23.734Z,23.30
2018-06-25T10:24:53.071Z,23.00
2018-06-25T10:27:22.360Z,23.20
2018-06-25T10:29:51.684Z,23.30
2018-06-25T10:32:21.037Z,22.80
2018-06-25T10:34:50.362Z,22.70
2018-06-25T10:37:19.675Z,23.10
2018-06-25T10:39:49.027Z,21.90
2018-06-25T10:44:47.343Z,21.80
2018-06-25T10:47:16.654Z,22.90
2018-06-25T10:49:45.934Z,23.60
2018-06-25T10:54:44.232Z,25.40
2018-06-25T10:57:13.768Z,23.90
2018-06-25T10:59:43.191Z,24.70
2018-06-25T11:02:12.417Z,23.80
2018-06-25T11:04:41.774Z,23.40
2018-06-25T11:07:11.167Z,21.70
2018-06-25T11:09:40.556Z,20.80
2018-06-25T11:12:09.946Z,22.20
2018-06-25T11:14:39.250Z,23.10
2018-06-25T11:17:08.656Z,24.50
2018-06-25T11:19:38.106Z,24.80
2018-06-25T11:22:07.544Z,25.10
2018-06-25T11:24:41.507Z,23.50
2018-06-25T11:27:10.956Z,22.50
2018-06-25T11:29:40.289Z,21.90
2018-06-25T11:32:09.667Z,22.10
2018-06-25T11:34:39.129Z,22.50
2018-06-25T11:37:08.381Z,22.50
2018-06-25T11:39:38.747Z,23.60
2018-06-25T11:42:08.119Z,23.40
2018-06-25T11:44:38.162Z,22.50
2018-06-25T11:47:07.702Z,22.90
2018-06-25T11:49:37.122Z,21.70
2018-06-25T11:54:36.001Z,21.30
2018-06-25T11:57:05.437Z,22.60
2018-06-25T11:59:35.399Z,23.20
2018-06-25T12:02:05.802Z,23.30
2018-06-25T12:04:35.092Z,23.30
2018-06-25T12:07:04.581Z,23.30
2018-06-25T12:09:34.098Z,23.10
2018-06-25T12:12:04.596Z,23.30
2018-06-25T12:14:34.033Z,23.30
2018-06-25T12:17:03.501Z,23.20
2018-06-25T12:19:32.801Z,22.70
2018-06-25T12:24:31.044Z,23.00
2018-06-25T12:27:00.347Z,23.40
2018-06-25T12:29:29.685Z,23.00
2018-06-25T12:31:59.045Z,22.90
2018-06-25T12:34:28.350Z,22.30
2018-06-25T12:36:57.738Z,23.40
2018-06-25T12:39:27.051Z,23.60
2018-06-25T12:41:56.363Z,22.50
2018-06-25T12:44:25.749Z,22.40
2018-06-25T12:46:55.034Z,23.30
2018-06-25T12:49:24.492Z,23.10
2018-06-25T12:51:53.855Z,22.90
2018-06-25T12:54:23.172Z,23.60
2018-06-25T12:56:52.490Z,24.20
2018-06-25T12:59:21.870Z,24.10
2018-06-25T13:04:20.008Z,22.10
2018-06-25T13:06:49.283Z,22.90
2018-06-25T13:09:18.537Z,23.70
2018-06-25T13:11:47.917Z,22.20
2018-06-25T13:14:17.233Z,22.10
2018-06-25T13:16:46.740Z,22.80
2018-06-25T13:19:16.075Z,22.80
2018-06-25T13:21:45.528Z,23.90
2018-06-25T13:24:14.808Z,24.10
2018-06-25T13:26:44.147Z,24.00
2018-06-25T13:29:13.469Z,23.90
2018-06-25T13:31:42.912Z,25.00
2018-06-25T13:34:12.209Z,24.60
2018-06-25T13:36:41.522Z,23.70
2018-06-25T13:41:39.816Z,24.40
2018-06-25T13:44:09.386Z,23.60
2018-06-25T13:46:38.670Z,23.90
2018-06-25T13:49:08.328Z,23.30
2018-06-25T13:51:37.729Z,23.80
2018-06-25T13:54:07.170Z,23.80
2018-06-25T13:56:36.583Z,25.00
2018-06-25T13:59:06.824Z,24.60
2018-06-25T14:01:36.260Z,23.90
2018-06-25T14:04:05.926Z,24.40
2018-06-25T14:06:35.588Z,24.40
2018-06-25T14:11:35.332Z,23.60
2018-06-25T14:14:04.980Z,23.00
2018-06-25T14:16:34.617Z,22.50
2018-06-25T14:19:03.880Z,22.70
2018-06-25T14:21:33.875Z,22.30
2018-06-25T14:24:08.808Z,21.80
2018-06-25T14:26:43.984Z,22.30
2018-06-25T14:29:18.730Z,22.50
2018-06-25T14:34:23.390Z,22.00
2018-06-25T14:36:53.520Z,22.20
2018-06-25T14:39:22.876Z,22.00
2018-06-25T14:41:52.231Z,22.20
2018-06-25T14:44:21.506Z,22.00
2018-06-25T14:46:50.871Z,21.20
2018-06-25T14:49:20.179Z,21.40
2018-06-25T14:51:49.529Z,21.80
2018-06-25T14:54:18.975Z,22.30
2018-06-25T14:56:48.690Z,22.30
2018-06-25T14:59:18.101Z,21.90
2018-06-25T15:01:47.358Z,21.60
2018-06-25T15:04:16.886Z,22.20
2018-06-25T15:06:46.942Z,22.80
2018-06-25T15:09:16.304Z,22.70
2018-06-25T15:11:45.603Z,22.80
2018-06-25T15:14:15.986Z,22.70
2018-06-25T15:16:45.438Z,22.60
2018-06-25T15:19:14.850Z,23.00
2018-06-25T15:21:44.190Z,23.10
2018-06-25T15:24:13.471Z,23.80
2018-06-25T15:26:42.457Z,23.70
2018-06-25T15:29:11.546Z,23.50
2018-06-25T15:31:40.563Z,21.50
2018-06-25T15:34:09.849Z,21.60
2018-06-25T15:36:39.178Z,23.10
2018-06-25T15:39:10.064Z,22.80
2018-06-25T15:41:39.967Z,22.40
2018-06-25T15:44:09.306Z,22.20
2018-06-25T15:46:38.630Z,21.30
2018-06-25T15:49:07.906Z,21.00
2018-06-25T15:54:06.359Z,21.10
2018-06-25T15:56:36.875Z,20.90
2018-06-25T15:59:06.623Z,21.30
2018-06-25T16:01:36.136Z,21.00
2018-06-25T16:04:05.605Z,20.90
2018-06-25T16:06:35.005Z,21.40
2018-06-25T16:09:05.444Z,21.70
2018-06-25T16:11:34.773Z,21.10
2018-06-25T16:14:04.614Z,21.30
2018-06-25T16:16:34.013Z,21.30
2018-06-25T16:19:03.353Z,21.40
2018-06-25T16:21:32.654Z,21.00
2018-06-25T16:24:02.054Z,20.70
2018-06-25T16:26:31.414Z,20.60
2018-06-25T16:29:00.775Z,21.10
2018-06-25T16:31:30.104Z,21.40
2018-06-25T16:33:59.458Z,21.20
2018-06-25T16:36:28.729Z,21.30
2018-06-25T16:38:58.189Z,21.40
2018-06-25T16:41:27.555Z,21.30
2018-06-25T16:43:57.890Z,21.10
2018-06-25T16:46:27.202Z,20.70
2018-06-25T16:48:56.642Z,20.90
2018-06-25T16:51:25.990Z,20.60
2018-06-25T16:54:02.063Z,20.70
2018-06-25T16:56:31.841Z,20.70
2018-06-25T16:59:01.167Z,20.90
2018-06-25T17:01:30.511Z,20.90
2018-06-25T17:03:59.821Z,20.80
2018-06-25T17:06:29.125Z,20.90
2018-06-25T17:11:27.303Z,21.70
2018-06-25T17:13:56.618Z,21.60
2018-06-25T17:16:26.013Z,21.00
2018-06-25T17:18:55.430Z,21.00
2018-06-25T17:21:24.740Z,20.90
2018-06-25T17:23:54.019Z,21.10
2018-06-25T17:26:23.445Z,20.70
2018-06-25T17:28:53.079Z,20.50
2018-06-25T17:31:22.958Z,20.60
2018-06-25T17:33:52.381Z,20.50
2018-06-25T17:36:21.790Z,20.70
2018-06-25T17:38:51.242Z,21.00
2018-06-25T17:41:20.596Z,21.00
2018-06-25T17:46:18.761Z,20.60
2018-06-25T17:48:48.035Z,20.70
2018-06-25T17:51:17.352Z,20.80
2018-06-25T17:53:46.726Z,20.70
2018-06-25T17:56:16.023Z,20.80
2018-06-25T17:58:45.348Z,20.50
2018-06-25T18:01:14.717Z,20.60
2018-06-25T18:04:02.461Z,20.60
2018-06-25T18:06:31.736Z,20.50
2018-06-25T18:09:01.327Z,20.50
2018-06-25T18:11:30.705Z,20.50
2018-06-25T18:14:00.137Z,20.50
2018-06-25T18:16:29.478Z,20.20
2018-06-25T18:18:58.811Z,20.10
2018-06-25T18:21:28.324Z,20.00
2018-06-25T18:23:57.614Z,20.10
2018-06-25T18:26:26.992Z,20.00
2018-06-25T18:28:56.266Z,19.90
2018-06-25T18:31:26.094Z,19.70
2018-06-25T18:33:55.674Z,19.90
2018-06-25T18:36:27.721Z,20.00
2018-06-25T18:38:57.896Z,19.70
2018-06-25T18:41:27.823Z,19.90
2018-06-25T18:46:26.097Z,20.00
2018-06-25T18:48:55.330Z,20.00
2018-06-25T18:51:24.775Z,19.80
2018-06-25T18:53:54.055Z,19.80
2018-06-25T18:56:23.338Z,19.80
2018-06-25T18:58:52.595Z,19.60
2018-06-25T19:03:50.798Z,19.40
2018-06-25T19:06:20.119Z,19.40
2018-06-25T19:08:49.514Z,19.40
2018-06-25T19:11:18.780Z,19.40
2018-06-25T19:16:16.940Z,19.40
2018-06-25T19:18:46.315Z,19.30
2018-06-25T19:21:15.644Z,19.10
2018-06-25T19:23:45.491Z,19.10
2018-06-25T19:26:14.756Z,19.20
2018-06-25T19:28:44.111Z,19.20
2018-06-25T19:31:13.456Z,19.10
2018-06-25T19:33:43.024Z,19.20
2018-06-25T19:36:12.337Z,19.00
2018-06-25T19:38:41.598Z,19.00
2018-06-25T19:43:39.765Z,19.00
2018-06-25T19:46:09.074Z,19.00
2018-06-25T19:48:39.634Z,18.90
2018-06-25T19:51:08.957Z,18.90
2018-06-25T19:53:39.647Z,18.90
2018-06-25T19:56:08.978Z,18.90
2018-06-25T19:58:38.231Z,19.00
2018-06-25T20:01:07.636Z,18.90
2018-06-25T20:03:37.194Z,18.90
2018-06-25T20:06:06.582Z,18.90
2018-06-25T20:08:36.041Z,18.90
2018-06-25T20:11:06.466Z,18.90
2018-06-25T20:13:36.297Z,18.80
2018-06-25T20:16:05.855Z,18.80
2018-06-25T20:18:35.283Z,18.90
2018-06-25T20:21:04.584Z,18.90
2018-06-25T20:23:33.994Z,19.00
2018-06-25T20:26:03.661Z,19.00
2018-06-25T20:28:32.930Z,19.00
2018-06-25T20:31:02.294Z,18.90
2018-06-25T20:33:31.582Z,18.90
2018-06-25T20:36:00.908Z,18.90
2018-06-25T20:38:30.192Z,18.90
2018-06-25T20:41:00.018Z,18.80
2018-06-25T20:43:29.502Z,18.60
2018-06-25T20:45:58.785Z,18.70
2018-06-25T20:48:28.134Z,18.60
2018-06-25T20:50:57.424Z,18.70
2018-06-25T20:53:26.690Z,18.60
2018-06-25T20:55:56.010Z,18.60
2018-06-25T20:58:25.259Z,18.70
2018-06-25T21:00:54.542Z,18.50
2018-06-25T21:03:23.915Z,18.60
2018-06-25T21:05:53.137Z,18.60
2018-06-25T21:08:22.442Z,18.40
2018-06-25T21:10:51.743Z,18.40
2018-06-25T21:13:21.008Z,18.40
2018-06-25T21:15:50.276Z,18.40
2018-06-25T21:18:19.616Z,18.40
2018-06-25T21:23:17.988Z,18.50
2018-06-25T21:25:47.450Z,18.40
2018-06-25T21:28:16.742Z,18.30
2018-06-25T21:30:46.080Z,18.30
2018-06-25T21:33:15.319Z,18.30
2018-06-25T21:35:45.523Z,18.40
2018-06-25T21:38:14.770Z,18.30
2018-06-25T21:40:44.071Z,18.30
2018-06-25T21:43:13.326Z,18.30
2018-06-25T21:45:42.680Z,18.20
2018-06-25T21:48:12.101Z,18.30
2018-06-25T21:50:41.347Z,18.10
2018-06-25T21:53:10.651Z,18.00
2018-06-25T21:55:40.081Z,18.00
2018-06-25T21:58:09.422Z,18.00
2018-06-25T22:00:47.173Z,17.90
2018-06-25T22:05:46.228Z,17.80
2018-06-25T22:08:15.970Z,17.80
2018-06-25T22:10:45.338Z,17.70
2018-06-25T22:13:14.600Z,17.90
2018-06-25T22:15:45.294Z,17.90
2018-06-25T22:18:14.567Z,17.90
2018-06-25T22:20:44.000Z,17.80
2018-06-25T22:23:13.311Z,17.80
2018-06-25T22:25:42.593Z,17.80
2018-06-25T22:28:12.654Z,17.80
2018-06-25T22:30:41.979Z,17.80
2018-06-25T22:33:11.224Z,17.80
2018-06-25T22:35:40.497Z,17.80
2018-06-25T22:38:09.794Z,17.80
2018-06-25T22:40:39.162Z,17.80
2018-06-25T22:43:08.491Z,17.80
2018-06-25T22:45:37.786Z,17.70
2018-06-25T22:48:07.085Z,17.70
2018-06-25T22:50:36.347Z,17.60
2018-06-25T22:53:05.617Z,17.50
2018-06-25T22:55:36.310Z,17.50
2018-06-25T22:58:05.590Z,17.40
2018-06-25T23:00:34.862Z,17.30
2018-06-25T23:03:04.165Z,17.20
2018-06-25T23:05:33.514Z,17.20
2018-06-25T23:08:02.796Z,17.10
2018-06-25T23:10:32.119Z,17.00
2018-06-25T23:13:01.396Z,16.90
2018-06-25T23:15:30.651Z,16.90
2018-06-25T23:18:00.033Z,16.80
2018-06-25T23:20:29.273Z,16.70
2018-06-25T23:22:58.832Z,16.60
2018-06-25T23:25:28.175Z,16.60
2018-06-25T23:27:57.443Z,16.50
2018-06-25T23:30:26.702Z,16.40
2018-06-25T23:32:55.979Z,16.30
2018-06-25T23:35:25.250Z,16.30
2018-06-25T23:37:54.652Z,16.20
2018-06-25T23:40:24.901Z,16.10
2018-06-25T23:42:54.205Z,16.10
2018-06-25T23:45:23.633Z,16.10
2018-06-25T23:47:52.983Z,16.00
2018-06-25T23:50:22.276Z,15.80
2018-06-25T23:52:51.663Z,15.80
2018-06-25T23:55:20.942Z,15.70
2018-06-25T23:57:50.272Z,15.80
